sensor_id;sensor_type;location;lat;lon;timestamp;P1;durP1;ratioP1;P2;durP2;ratioP2
74945;SDS011;63509;45.250;38.102;2022-12-28T00:01:28;4.95;;;2.20;;
74945;SDS011;63509;45.250;38.102;2022-12-28T00:03:57;6.80;;;1.92;;
74945;SDS011;63509;45.250;38.102;2022-12-28T00:06:42;3.03;;;1.52;;
74945;SDS011;63509;45.250;38.102;2022-12-28T00:11:52;4.43;;;2.25;;
74945;SDS011;63509;45.250;38.102;2022-12-28T00:14:18;6.57;;;2.28;;
74945;SDS011;63509;45.250;38.102;2022-12-28T00:17:03;4.13;;;1.60;;
74945;SDS011;63509;45.250;38.102;2022-12-28T00:19:29;4.32;;;1.95;;
74945;SDS011;63509;45.250;38.102;2022-12-28T00:22:13;4.93;;;1.98;;
74945;SDS011;63509;45.250;38.102;2022-12-28T00:24:39;7.70;;;2.20;;
74945;SDS011;63509;45.250;38.102;2022-12-28T00:27:24;6.88;;;2.63;;
74945;SDS011;63509;45.250;38.102;2022-12-28T00:30:08;4.80;;;2.22;;
74945;SDS011;63509;45.250;38.102;2022-12-28T00:32:54;5.60;;;2.65;;
74945;SDS011;63509;45.250;38.102;2022-12-28T00:35:38;13.30;;;3.20;;
74945;SDS011;63509;45.250;38.102;2022-12-28T00:38:04;5.00;;;2.60;;
74945;SDS011;63509;45.250;38.102;2022-12-28T00:40:31;10.48;;;2.92;;
74945;SDS011;63509;45.250;38.102;2022-12-28T00:42:57;9.40;;;3.33;;
74945;SDS011;63509;45.250;38.102;2022-12-28T00:48:12;4.63;;;2.15;;
74945;SDS011;63509;45.250;38.102;2022-12-28T00:51:17;4.20;;;2.42;;
74945;SDS011;63509;45.250;38.102;2022-12-28T00:54:02;10.85;;;2.70;;
74945;SDS011;63509;45.250;38.102;2022-12-28T00:57:06;5.75;;;2.55;;
74945;SDS011;63509;45.250;38.102;2022-12-28T00:59:50;6.45;;;3.42;;
74945;SDS011;63509;45.250;38.102;2022-12-28T01:02:17;4.97;;;2.63;;
74945;SDS011;63509;45.250;38.102;2022-12-28T01:05:01;8.00;;;2.88;;
74945;SDS011;63509;45.250;38.102;2022-12-28T01:07:27;6.03;;;3.03;;
74945;SDS011;63509;45.250;38.102;2022-12-28T01:09:54;5.40;;;2.90;;
74945;SDS011;63509;45.250;38.102;2022-12-28T01:12:20;5.53;;;2.58;;
74945;SDS011;63509;45.250;38.102;2022-12-28T01:15:04;7.18;;;2.70;;
74945;SDS011;63509;45.250;38.102;2022-12-28T01:18:09;6.63;;;2.60;;
74945;SDS011;63509;45.250;38.102;2022-12-28T01:20:53;6.07;;;3.00;;
74945;SDS011;63509;45.250;38.102;2022-12-28T01:23:38;5.40;;;2.95;;
74945;SDS011;63509;45.250;38.102;2022-12-28T01:26:04;5.75;;;2.60;;
74945;SDS011;63509;45.250;38.102;2022-12-28T01:29:27;6.38;;;3.20;;
74945;SDS011;63509;45.250;38.102;2022-12-28T01:32:11;7.38;;;2.70;;
74945;SDS011;63509;45.250;38.102;2022-12-28T01:34:43;6.82;;;2.70;;
74945;SDS011;63509;45.250;38.102;2022-12-28T01:37:10;4.65;;;2.17;;
74945;SDS011;63509;45.250;38.102;2022-12-28T01:39:56;5.90;;;2.58;;
74945;SDS011;63509;45.250;38.102;2022-12-28T01:42:25;6.40;;;2.75;;
74945;SDS011;63509;45.250;38.102;2022-12-28T01:45:17;5.68;;;2.72;;
74945;SDS011;63509;45.250;38.102;2022-12-28T01:47:47;7.55;;;3.25;;
74945;SDS011;63509;45.250;38.102;2022-12-28T01:50:19;5.70;;;2.97;;
74945;SDS011;63509;45.250;38.102;2022-12-28T01:53:23;5.78;;;3.33;;
74945;SDS011;63509;45.250;38.102;2022-12-28T01:59:50;7.00;;;3.20;;
74945;SDS011;63509;45.250;38.102;2022-12-28T02:02:21;4.85;;;3.70;;
74945;SDS011;63509;45.250;38.102;2022-12-28T02:04:47;6.57;;;3.40;;
74945;SDS011;63509;45.250;38.102;2022-12-28T02:07:56;7.90;;;3.22;;
74945;SDS011;63509;45.250;38.102;2022-12-28T02:10:29;7.10;;;3.53;;
74945;SDS011;63509;45.250;38.102;2022-12-28T02:12:57;7.82;;;3.20;;
74945;SDS011;63509;45.250;38.102;2022-12-28T02:18:10;5.78;;;3.35;;
74945;SDS011;63509;45.250;38.102;2022-12-28T02:36:14;8.35;;;4.15;;
74945;SDS011;63509;45.250;38.102;2022-12-28T02:38:47;8.38;;;3.65;;
74945;SDS011;63509;45.250;38.102;2022-12-28T02:41:36;7.07;;;3.60;;
74945;SDS011;63509;45.250;38.102;2022-12-28T02:44:05;6.40;;;3.80;;
74945;SDS011;63509;45.250;38.102;2022-12-28T02:46:50;8.77;;;3.92;;
74945;SDS011;63509;45.250;38.102;2022-12-28T02:49:36;7.15;;;3.40;;
74945;SDS011;63509;45.250;38.102;2022-12-28T03:01:52;4.90;;;2.67;;
74945;SDS011;63509;45.250;38.102;2022-12-28T03:04:54;5.88;;;2.97;;
74945;SDS011;63509;45.250;38.102;2022-12-28T03:07:44;6.45;;;2.90;;
74945;SDS011;63509;45.250;38.102;2022-12-28T03:10:40;9.57;;;3.45;;
74945;SDS011;63509;45.250;38.102;2022-12-28T03:13:21;7.43;;;3.20;;
74945;SDS011;63509;45.250;38.102;2022-12-28T03:16:19;11.93;;;3.28;;
74945;SDS011;63509;45.250;38.102;2022-12-28T03:19:29;6.63;;;3.00;;
74945;SDS011;63509;45.250;38.102;2022-12-28T03:22:19;5.65;;;2.95;;
74945;SDS011;63509;45.250;38.102;2022-12-28T03:25:11;5.32;;;2.72;;
74945;SDS011;63509;45.250;38.102;2022-12-28T03:28:00;9.00;;;3.00;;
74945;SDS011;63509;45.250;38.102;2022-12-28T03:30:48;4.95;;;2.72;;
74945;SDS011;63509;45.250;38.102;2022-12-28T03:37:03;6.75;;;3.45;;
74945;SDS011;63509;45.250;38.102;2022-12-28T03:43:01;5.65;;;3.72;;
74945;SDS011;63509;45.250;38.102;2022-12-28T03:51:28;9.73;;;4.55;;
74945;SDS011;63509;45.250;38.102;2022-12-28T03:54:33;10.15;;;4.95;;
74945;SDS011;63509;45.250;38.102;2022-12-28T04:00:05;10.13;;;6.93;;
74945;SDS011;63509;45.250;38.102;2022-12-28T04:02:41;11.85;;;6.53;;
74945;SDS011;63509;45.250;38.102;2022-12-28T04:05:07;8.23;;;4.15;;
74945;SDS011;63509;45.250;38.102;2022-12-28T04:07:35;8.95;;;4.82;;
74945;SDS011;63509;45.250;38.102;2022-12-28T04:10:01;9.05;;;4.80;;
74945;SDS011;63509;45.250;38.102;2022-12-28T04:12:28;11.45;;;5.35;;
74945;SDS011;63509;45.250;38.102;2022-12-28T04:15:20;9.63;;;4.85;;
74945;SDS011;63509;45.250;38.102;2022-12-28T04:18:23;7.65;;;4.60;;
74945;SDS011;63509;45.250;38.102;2022-12-28T04:21:08;10.57;;;4.85;;
74945;SDS011;63509;45.250;38.102;2022-12-28T04:23:40;14.90;;;5.68;;
74945;SDS011;63509;45.250;38.102;2022-12-28T04:26:26;9.10;;;4.82;;
74945;SDS011;63509;45.250;38.102;2022-12-28T04:34:42;11.32;;;5.15;;
74945;SDS011;63509;45.250;38.102;2022-12-28T04:37:10;10.10;;;5.57;;
74945;SDS011;63509;45.250;38.102;2022-12-28T04:39:55;10.45;;;4.47;;
74945;SDS011;63509;45.250;38.102;2022-12-28T04:42:40;10.95;;;5.10;;
74945;SDS011;63509;45.250;38.102;2022-12-28T04:46:04;9.65;;;4.93;;
74945;SDS011;63509;45.250;38.102;2022-12-28T04:48:49;9.00;;;4.57;;
74945;SDS011;63509;45.250;38.102;2022-12-28T04:51:34;10.93;;;5.43;;
74945;SDS011;63509;45.250;38.102;2022-12-28T04:54:00;9.77;;;5.00;;
74945;SDS011;63509;45.250;38.102;2022-12-28T04:57:03;8.73;;;4.95;;
74945;SDS011;63509;45.250;38.102;2022-12-28T04:59:31;11.35;;;5.70;;
74945;SDS011;63509;45.250;38.102;2022-12-28T05:02:53;11.80;;;6.70;;
74945;SDS011;63509;45.250;38.102;2022-12-28T05:05:40;11.10;;;6.25;;
74945;SDS011;63509;45.250;38.102;2022-12-28T05:08:07;12.35;;;6.40;;
74945;SDS011;63509;45.250;38.102;2022-12-28T05:10:33;11.73;;;7.05;;
74945;SDS011;63509;45.250;38.102;2022-12-28T05:13:56;12.57;;;6.72;;
74945;SDS011;63509;45.250;38.102;2022-12-28T05:16:23;12.77;;;7.15;;
74945;SDS011;63509;45.250;38.102;2022-12-28T05:19:09;11.88;;;7.18;;
74945;SDS011;63509;45.250;38.102;2022-12-28T05:21:54;16.17;;;7.72;;
74945;SDS011;63509;45.250;38.102;2022-12-28T05:24:20;13.45;;;6.93;;
74945;SDS011;63509;45.250;38.102;2022-12-28T05:27:04;10.73;;;6.40;;
74945;SDS011;63509;45.250;38.102;2022-12-28T05:29:32;15.35;;;7.40;;
74945;SDS011;63509;45.250;38.102;2022-12-28T05:31:58;13.05;;;7.22;;
74945;SDS011;63509;45.250;38.102;2022-12-28T05:34:25;16.90;;;8.32;;
74945;SDS011;63509;45.250;38.102;2022-12-28T05:37:10;15.85;;;8.63;;
74945;SDS011;63509;45.250;38.102;2022-12-28T05:39:37;15.02;;;8.10;;
74945;SDS011;63509;45.250;38.102;2022-12-28T05:45:07;18.08;;;8.38;;
74945;SDS011;63509;45.250;38.102;2022-12-28T05:47:36;19.75;;;9.30;;
74945;SDS011;63509;45.250;38.102;2022-12-28T05:50:21;17.40;;;8.55;;
74945;SDS011;63509;45.250;38.102;2022-12-28T05:53:06;24.73;;;9.55;;
74945;SDS011;63509;45.250;38.102;2022-12-28T05:55:50;16.40;;;8.80;;
74945;SDS011;63509;45.250;38.102;2022-12-28T05:58:55;18.73;;;10.38;;
74945;SDS011;63509;45.250;38.102;2022-12-28T06:01:59;20.63;;;10.68;;
74945;SDS011;63509;45.250;38.102;2022-12-28T06:07:47;22.38;;;10.48;;
74945;SDS011;63509;45.250;38.102;2022-12-28T06:10:53;24.50;;;10.70;;
74945;SDS011;63509;45.250;38.102;2022-12-28T06:13:42;22.38;;;11.23;;
74945;SDS011;63509;45.250;38.102;2022-12-28T06:16:11;19.35;;;11.70;;
74945;SDS011;63509;45.250;38.102;2022-12-28T06:19:05;24.38;;;12.57;;
74945;SDS011;63509;45.250;38.102;2022-12-28T06:21:34;28.90;;;12.18;;
74945;SDS011;63509;45.250;38.102;2022-12-28T06:24:02;22.70;;;11.52;;
74945;SDS011;63509;45.250;38.102;2022-12-28T06:29:52;23.05;;;11.07;;
74945;SDS011;63509;45.250;38.102;2022-12-28T06:32:57;21.98;;;10.52;;
74945;SDS011;63509;45.250;38.102;2022-12-28T06:35:24;26.58;;;11.05;;
74945;SDS011;63509;45.250;38.102;2022-12-28T06:38:28;24.02;;;10.43;;
74945;SDS011;63509;45.250;38.102;2022-12-28T06:41:19;18.20;;;9.27;;
74945;SDS011;63509;45.250;38.102;2022-12-28T06:44:22;19.38;;;8.80;;
74945;SDS011;63509;45.250;38.102;2022-12-28T06:47:07;18.30;;;7.25;;
74945;SDS011;63509;45.250;38.102;2022-12-28T06:49:33;22.35;;;9.25;;
74945;SDS011;63509;45.250;38.102;2022-12-28T06:52:36;22.70;;;7.20;;
74945;SDS011;63509;45.250;38.102;2022-12-28T06:55:21;15.40;;;6.65;;
74945;SDS011;63509;45.250;38.102;2022-12-28T06:57:47;11.02;;;5.70;;
74945;SDS011;63509;45.250;38.102;2022-12-28T07:03:39;12.98;;;5.05;;
74945;SDS011;63509;45.250;38.102;2022-12-28T07:06:06;17.73;;;6.00;;
74945;SDS011;63509;45.250;38.102;2022-12-28T07:08:59;13.50;;;4.97;;
74945;SDS011;63509;45.250;38.102;2022-12-28T07:11:45;12.90;;;4.90;;
74945;SDS011;63509;45.250;38.102;2022-12-28T07:14:33;12.73;;;4.95;;
74945;SDS011;63509;45.250;38.102;2022-12-28T07:17:18;9.10;;;4.18;;
74945;SDS011;63509;45.250;38.102;2022-12-28T07:20:04;11.52;;;5.03;;
74945;SDS011;63509;45.250;38.102;2022-12-28T07:22:30;9.43;;;4.90;;
74945;SDS011;63509;45.250;38.102;2022-12-28T07:24:56;10.55;;;4.45;;
74945;SDS011;63509;45.250;38.102;2022-12-28T07:27:41;12.90;;;4.68;;
74945;SDS011;63509;45.250;38.102;2022-12-28T07:33:11;7.13;;;3.55;;
74945;SDS011;63509;45.250;38.102;2022-12-28T07:35:56;7.65;;;3.20;;
74945;SDS011;63509;45.250;38.102;2022-12-28T07:41:45;4.60;;;1.92;;
74945;SDS011;63509;45.250;38.102;2022-12-28T07:44:48;6.07;;;2.65;;
74945;SDS011;63509;45.250;38.102;2022-12-28T07:47:33;7.38;;;2.13;;
74945;SDS011;63509;45.250;38.102;2022-12-28T07:50:00;4.95;;;1.85;;
74945;SDS011;63509;45.250;38.102;2022-12-28T07:52:28;14.95;;;2.42;;
74945;SDS011;63509;45.250;38.102;2022-12-28T07:54:55;6.60;;;2.13;;
74945;SDS011;63509;45.250;38.102;2022-12-28T07:57:41;5.60;;;1.73;;
74945;SDS011;63509;45.250;38.102;2022-12-28T08:00:29;3.63;;;1.67;;
74945;SDS011;63509;45.250;38.102;2022-12-28T08:06:09;6.65;;;1.90;;
74945;SDS011;63509;45.250;38.102;2022-12-28T08:08:41;5.38;;;1.77;;
74945;SDS011;63509;45.250;38.102;2022-12-28T08:11:09;4.30;;;1.55;;
74945;SDS011;63509;45.250;38.102;2022-12-28T08:13:39;5.25;;;1.75;;
74945;SDS011;63509;45.250;38.102;2022-12-28T08:16:08;4.45;;;1.52;;
74945;SDS011;63509;45.250;38.102;2022-12-28T08:18:36;3.33;;;1.50;;
74945;SDS011;63509;45.250;38.102;2022-12-28T08:21:22;3.70;;;1.65;;
74945;SDS011;63509;45.250;38.102;2022-12-28T08:24:08;3.47;;;1.83;;
74945;SDS011;63509;45.250;38.102;2022-12-28T08:29:43;6.38;;;1.55;;
74945;SDS011;63509;45.250;38.102;2022-12-28T08:35:31;3.22;;;1.42;;
74945;SDS011;63509;45.250;38.102;2022-12-28T08:41:03;2.97;;;1.33;;
74945;SDS011;63509;45.250;38.102;2022-12-28T08:44:08;3.45;;;1.30;;
74945;SDS011;63509;45.250;38.102;2022-12-28T08:46:34;3.45;;;1.35;;
74945;SDS011;63509;45.250;38.102;2022-12-28T08:49:37;4.57;;;1.25;;
74945;SDS011;63509;45.250;38.102;2022-12-28T08:52:40;2.53;;;1.38;;
74945;SDS011;63509;45.250;38.102;2022-12-28T08:58:10;5.15;;;1.58;;
74945;SDS011;63509;45.250;38.102;2022-12-28T09:00:36;6.35;;;1.90;;
74945;SDS011;63509;45.250;38.102;2022-12-28T09:03:02;3.80;;;1.38;;
74945;SDS011;63509;45.250;38.102;2022-12-28T09:08:53;3.38;;;1.40;;
74945;SDS011;63509;45.250;38.102;2022-12-28T09:11:21;4.00;;;1.83;;
74945;SDS011;63509;45.250;38.102;2022-12-28T09:14:05;4.35;;;1.95;;
74945;SDS011;63509;45.250;38.102;2022-12-28T09:16:33;2.80;;;1.63;;
74945;SDS011;63509;45.250;38.102;2022-12-28T09:19:18;4.88;;;2.13;;
74945;SDS011;63509;45.250;38.102;2022-12-28T09:22:03;3.97;;;2.40;;
74945;SDS011;63509;45.250;38.102;2022-12-28T09:24:31;6.55;;;2.92;;
74945;SDS011;63509;45.250;38.102;2022-12-28T09:27:16;7.68;;;3.17;;
74945;SDS011;63509;45.250;38.102;2022-12-28T09:29:43;6.63;;;3.58;;
74945;SDS011;63509;45.250;38.102;2022-12-28T09:32:47;7.95;;;2.80;;
74945;SDS011;63509;45.250;38.102;2022-12-28T09:35:33;6.43;;;2.90;;
74945;SDS011;63509;45.250;38.102;2022-12-28T09:40:45;5.28;;;3.05;;
74945;SDS011;63509;45.250;38.102;2022-12-28T09:43:11;8.68;;;3.50;;
74945;SDS011;63509;45.250;38.102;2022-12-28T09:48:53;4.82;;;2.55;;
74945;SDS011;63509;45.250;38.102;2022-12-28T09:51:54;7.10;;;3.70;;
74945;SDS011;63509;45.250;38.102;2022-12-28T09:54:51;4.82;;;2.80;;
74945;SDS011;63509;45.250;38.102;2022-12-28T09:57:57;5.65;;;2.97;;
74945;SDS011;63509;45.250;38.102;2022-12-28T10:06:32;13.15;;;3.08;;
74945;SDS011;63509;45.250;38.102;2022-12-28T10:09:36;6.00;;;2.58;;
74945;SDS011;63509;45.250;38.102;2022-12-28T10:12:18;5.97;;;2.22;;
74945;SDS011;63509;45.250;38.102;2022-12-28T10:14:46;3.72;;;2.38;;
74945;SDS011;63509;45.250;38.102;2022-12-28T10:17:32;4.18;;;2.03;;
74945;SDS011;63509;45.250;38.102;2022-12-28T10:19:58;6.50;;;2.38;;
74945;SDS011;63509;45.250;38.102;2022-12-28T10:22:44;5.07;;;2.50;;
74945;SDS011;63509;45.250;38.102;2022-12-28T10:25:16;8.43;;;2.08;;
74945;SDS011;63509;45.250;38.102;2022-12-28T10:28:05;3.83;;;1.77;;
74945;SDS011;63509;45.250;38.102;2022-12-28T10:31:09;3.22;;;1.55;;
74945;SDS011;63509;45.250;38.102;2022-12-28T10:33:56;5.63;;;1.52;;
74945;SDS011;63509;45.250;38.102;2022-12-28T10:37:11;4.15;;;1.60;;
74945;SDS011;63509;45.250;38.102;2022-12-28T10:40:00;6.47;;;2.10;;
74945;SDS011;63509;45.250;38.102;2022-12-28T10:42:40;3.65;;;1.30;;
74945;SDS011;63509;45.250;38.102;2022-12-28T10:48:15;3.15;;;1.40;;
74945;SDS011;63509;45.250;38.102;2022-12-28T10:50:49;6.10;;;3.10;;
74945;SDS011;63509;45.250;38.102;2022-12-28T10:53:42;3.05;;;1.67;;
74945;SDS011;63509;45.250;38.102;2022-12-28T11:02:21;6.15;;;1.85;;
74945;SDS011;63509;45.250;38.102;2022-12-28T11:05:16;4.70;;;1.35;;
74945;SDS011;63509;45.250;38.102;2022-12-28T11:07:46;4.53;;;2.00;;
74945;SDS011;63509;45.250;38.102;2022-12-28T11:10:28;8.30;;;1.52;;
74945;SDS011;63509;45.250;38.102;2022-12-28T11:12:56;13.77;;;2.08;;
74945;SDS011;63509;45.250;38.102;2022-12-28T11:24:55;4.28;;;1.27;;
74945;SDS011;63509;45.250;38.102;2022-12-28T11:27:42;12.52;;;2.10;;
74945;SDS011;63509;45.250;38.102;2022-12-28T11:30:29;9.43;;;1.58;;
74945;SDS011;63509;45.250;38.102;2022-12-28T11:33:27;6.60;;;1.45;;
74945;SDS011;63509;45.250;38.102;2022-12-28T11:36:19;4.45;;;1.52;;
74945;SDS011;63509;45.250;38.102;2022-12-28T11:44:58;5.07;;;1.20;;
74945;SDS011;63509;45.250;38.102;2022-12-28T12:00:46;9.13;;;1.35;;
74945;SDS011;63509;45.250;38.102;2022-12-28T12:11:48;3.30;;;1.42;;
74945;SDS011;63509;45.250;38.102;2022-12-28T12:14:36;5.57;;;1.95;;
74945;SDS011;63509;45.250;38.102;2022-12-28T12:17:15;2.35;;;1.00;;
74945;SDS011;63509;45.250;38.102;2022-12-28T12:22:41;3.28;;;1.50;;
74945;SDS011;63509;45.250;38.102;2022-12-28T12:28:13;5.25;;;1.27;;
74945;SDS011;63509;45.250;38.102;2022-12-28T12:31:04;4.38;;;1.65;;
74945;SDS011;63509;45.250;38.102;2022-12-28T12:33:39;3.38;;;1.00;;
74945;SDS011;63509;45.250;38.102;2022-12-28T12:45:29;4.18;;;1.55;;
74945;SDS011;63509;45.250;38.102;2022-12-28T13:00:21;4.63;;;1.55;;
74945;SDS011;63509;45.250;38.102;2022-12-28T13:03:17;6.75;;;1.50;;
74945;SDS011;63509;45.250;38.102;2022-12-28T13:05:55;11.75;;;1.58;;
74945;SDS011;63509;45.250;38.102;2022-12-28T13:11:26;9.63;;;2.00;;
74945;SDS011;63509;45.250;38.102;2022-12-28T13:17:03;7.50;;;1.30;;
74945;SDS011;63509;45.250;38.102;2022-12-28T13:19:31;4.03;;;1.33;;
74945;SDS011;63509;45.250;38.102;2022-12-28T13:21:57;3.20;;;1.10;;
74945;SDS011;63509;45.250;38.102;2022-12-28T13:24:43;4.95;;;1.58;;
74945;SDS011;63509;45.250;38.102;2022-12-28T13:33:40;13.10;;;1.58;;
74945;SDS011;63509;45.250;38.102;2022-12-28T13:41:36;7.00;;;1.63;;
74945;SDS011;63509;45.250;38.102;2022-12-28T13:50:17;4.22;;;1.20;;
74945;SDS011;63509;45.250;38.102;2022-12-28T13:53:26;3.97;;;1.30;;
74945;SDS011;63509;45.250;38.102;2022-12-28T13:56:14;5.03;;;1.70;;
74945;SDS011;63509;45.250;38.102;2022-12-28T13:58:43;6.40;;;1.90;;
74945;SDS011;63509;45.250;38.102;2022-12-28T14:02:07;7.57;;;1.42;;
74945;SDS011;63509;45.250;38.102;2022-12-28T14:04:43;6.07;;;1.33;;
74945;SDS011;63509;45.250;38.102;2022-12-28T14:07:28;3.95;;;1.35;;
74945;SDS011;63509;45.250;38.102;2022-12-28T14:09:55;7.75;;;1.83;;
74945;SDS011;63509;45.250;38.102;2022-12-28T14:12:21;5.45;;;1.58;;
74945;SDS011;63509;45.250;38.102;2022-12-28T14:15:06;11.05;;;1.55;;
74945;SDS011;63509;45.250;38.102;2022-12-28T14:17:53;3.17;;;1.42;;
74945;SDS011;63509;45.250;38.102;2022-12-28T14:20:50;6.47;;;1.30;;
74945;SDS011;63509;45.250;38.102;2022-12-28T14:23:40;3.63;;;1.27;;
74945;SDS011;63509;45.250;38.102;2022-12-28T14:26:17;4.55;;;1.50;;
74945;SDS011;63509;45.250;38.102;2022-12-28T14:28:46;4.03;;;1.02;;
74945;SDS011;63509;45.250;38.102;2022-12-28T14:31:19;5.03;;;1.20;;
74945;SDS011;63509;45.250;38.102;2022-12-28T14:34:14;8.00;;;1.38;;
74945;SDS011;63509;45.250;38.102;2022-12-28T14:37:41;3.92;;;1.42;;
74945;SDS011;63509;45.250;38.102;2022-12-28T14:43:36;7.82;;;1.63;;
74945;SDS011;63509;45.250;38.102;2022-12-28T14:54:50;8.43;;;2.00;;
74945;SDS011;63509;45.250;38.102;2022-12-28T14:57:36;7.60;;;1.38;;
74945;SDS011;63509;45.250;38.102;2022-12-28T15:00:24;6.15;;;2.28;;
74945;SDS011;63509;45.250;38.102;2022-12-28T15:03:16;4.25;;;2.30;;
74945;SDS011;63509;45.250;38.102;2022-12-28T15:05:47;14.48;;;4.10;;
74945;SDS011;63509;45.250;38.102;2022-12-28T15:08:18;9.32;;;4.63;;
74945;SDS011;63509;45.250;38.102;2022-12-28T15:11:05;10.77;;;4.60;;
74945;SDS011;63509;45.250;38.102;2022-12-28T15:13:34;13.27;;;4.43;;
74945;SDS011;63509;45.250;38.102;2022-12-28T15:16:01;10.73;;;4.35;;
74945;SDS011;63509;45.250;38.102;2022-12-28T15:18:29;14.45;;;5.57;;
74945;SDS011;63509;45.250;38.102;2022-12-28T15:20:56;7.63;;;4.20;;
74945;SDS011;63509;45.250;38.102;2022-12-28T15:23:22;7.45;;;1.77;;
74945;SDS011;63509;45.250;38.102;2022-12-28T15:25:49;5.72;;;2.20;;
74945;SDS011;63509;45.250;38.102;2022-12-28T15:28:15;6.70;;;1.45;;
74945;SDS011;63509;45.250;38.102;2022-12-28T15:30:44;9.45;;;2.22;;
74945;SDS011;63509;45.250;38.102;2022-12-28T15:33:10;4.15;;;1.65;;
74945;SDS011;63509;45.250;38.102;2022-12-28T15:35:36;7.18;;;2.03;;
74945;SDS011;63509;45.250;38.102;2022-12-28T15:38:04;7.38;;;1.55;;
74945;SDS011;63509;45.250;38.102;2022-12-28T15:40:30;5.05;;;1.65;;
74945;SDS011;63509;45.250;38.102;2022-12-28T15:42:57;11.57;;;1.70;;
74945;SDS011;63509;45.250;38.102;2022-12-28T15:45:23;5.10;;;1.42;;
74945;SDS011;63509;45.250;38.102;2022-12-28T15:47:53;5.90;;;1.60;;
74945;SDS011;63509;45.250;38.102;2022-12-28T15:50:19;6.88;;;1.60;;
74945;SDS011;63509;45.250;38.102;2022-12-28T15:52:45;4.13;;;1.45;;
74945;SDS011;63509;45.250;38.102;2022-12-28T15:55:12;4.90;;;1.50;;
74945;SDS011;63509;45.250;38.102;2022-12-28T15:57:38;5.93;;;1.70;;
74945;SDS011;63509;45.250;38.102;2022-12-28T16:00:04;7.43;;;1.38;;
74945;SDS011;63509;45.250;38.102;2022-12-28T16:02:32;7.72;;;1.70;;
74945;SDS011;63509;45.250;38.102;2022-12-28T16:04:58;5.35;;;1.85;;
74945;SDS011;63509;45.250;38.102;2022-12-28T16:07:24;9.65;;;2.40;;
74945;SDS011;63509;45.250;38.102;2022-12-28T16:09:50;7.68;;;3.40;;
74945;SDS011;63509;45.250;38.102;2022-12-28T16:12:16;13.88;;;4.13;;
74945;SDS011;63509;45.250;38.102;2022-12-28T16:14:45;12.00;;;4.25;;
74945;SDS011;63509;45.250;38.102;2022-12-28T16:17:11;13.55;;;6.03;;
74945;SDS011;63509;45.250;38.102;2022-12-28T16:19:38;12.48;;;3.83;;
74945;SDS011;63509;45.250;38.102;2022-12-28T16:22:24;9.38;;;2.65;;
74945;SDS011;63509;45.250;38.102;2022-12-28T16:24:50;5.93;;;2.00;;
74945;SDS011;63509;45.250;38.102;2022-12-28T16:27:16;15.32;;;2.17;;
74945;SDS011;63509;45.250;38.102;2022-12-28T16:29:43;5.78;;;1.90;;
74945;SDS011;63509;45.250;38.102;2022-12-28T16:32:13;7.38;;;1.98;;
74945;SDS011;63509;45.250;38.102;2022-12-28T16:34:40;9.75;;;1.98;;
74945;SDS011;63509;45.250;38.102;2022-12-28T16:37:06;10.57;;;2.20;;
74945;SDS011;63509;45.250;38.102;2022-12-28T16:39:35;4.47;;;2.35;;
74945;SDS011;63509;45.250;38.102;2022-12-28T16:42:02;9.00;;;2.03;;
74945;SDS011;63509;45.250;38.102;2022-12-28T16:44:31;9.43;;;2.15;;
74945;SDS011;63509;45.250;38.102;2022-12-28T16:46:58;5.95;;;1.65;;
74945;SDS011;63509;45.250;38.102;2022-12-28T16:49:25;5.80;;;1.90;;
74945;SDS011;63509;45.250;38.102;2022-12-28T16:51:52;13.32;;;1.92;;
74945;SDS011;63509;45.250;38.102;2022-12-28T16:54:19;8.52;;;2.47;;
74945;SDS011;63509;45.250;38.102;2022-12-28T16:59:15;13.88;;;2.08;;
74945;SDS011;63509;45.250;38.102;2022-12-28T17:01:43;6.45;;;1.90;;
74945;SDS011;63509;45.250;38.102;2022-12-28T17:04:11;8.93;;;2.30;;
74945;SDS011;63509;45.250;38.102;2022-12-28T17:06:38;5.63;;;1.60;;
74945;SDS011;63509;45.250;38.102;2022-12-28T17:09:07;11.10;;;2.45;;
74945;SDS011;63509;45.250;38.102;2022-12-28T17:11:33;9.85;;;2.08;;
74945;SDS011;63509;45.250;38.102;2022-12-28T17:14:02;15.25;;;3.22;;
74945;SDS011;63509;45.250;38.102;2022-12-28T17:16:29;10.80;;;2.58;;
74945;SDS011;63509;45.250;38.102;2022-12-28T17:18:56;19.55;;;2.75;;
74945;SDS011;63509;45.250;38.102;2022-12-28T17:21:22;9.50;;;1.80;;
74945;SDS011;63509;45.250;38.102;2022-12-28T17:23:48;11.70;;;2.08;;
74945;SDS011;63509;45.250;38.102;2022-12-28T17:26:14;14.13;;;2.35;;
74945;SDS011;63509;45.250;38.102;2022-12-28T17:28:41;14.73;;;2.40;;
74945;SDS011;63509;45.250;38.102;2022-12-28T17:31:09;9.60;;;2.92;;
74945;SDS011;63509;45.250;38.102;2022-12-28T17:33:57;21.02;;;1.92;;
74945;SDS011;63509;45.250;38.102;2022-12-28T17:36:25;15.65;;;2.08;;
74945;SDS011;63509;45.250;38.102;2022-12-28T17:38:52;20.65;;;2.40;;
74945;SDS011;63509;45.250;38.102;2022-12-28T17:41:20;6.32;;;2.13;;
74945;SDS011;63509;45.250;38.102;2022-12-28T17:43:49;10.73;;;2.38;;
74945;SDS011;63509;45.250;38.102;2022-12-28T17:46:21;13.60;;;2.47;;
74945;SDS011;63509;45.250;38.102;2022-12-28T17:48:50;13.63;;;3.30;;
74945;SDS011;63509;45.250;38.102;2022-12-28T17:51:20;13.75;;;2.67;;
74945;SDS011;63509;45.250;38.102;2022-12-28T17:53:48;21.02;;;3.05;;
74945;SDS011;63509;45.250;38.102;2022-12-28T17:56:14;16.80;;;3.08;;
74945;SDS011;63509;45.250;38.102;2022-12-28T17:58:41;12.85;;;2.42;;
74945;SDS011;63509;45.250;38.102;2022-12-28T18:01:09;10.57;;;2.28;;
74945;SDS011;63509;45.250;38.102;2022-12-28T18:03:37;9.13;;;3.05;;
74945;SDS011;63509;45.250;38.102;2022-12-28T18:06:03;9.93;;;2.53;;
74945;SDS011;63509;45.250;38.102;2022-12-28T18:08:34;7.63;;;2.50;;
74945;SDS011;63509;45.250;38.102;2022-12-28T18:11:00;8.10;;;2.85;;
74945;SDS011;63509;45.250;38.102;2022-12-28T18:13:26;7.00;;;2.80;;
74945;SDS011;63509;45.250;38.102;2022-12-28T18:15:54;6.95;;;1.90;;
74945;SDS011;63509;45.250;38.102;2022-12-28T18:18:20;11.80;;;2.55;;
74945;SDS011;63509;45.250;38.102;2022-12-28T18:20:57;6.68;;;2.15;;
74945;SDS011;63509;45.250;38.102;2022-12-28T18:23:28;15.55;;;2.38;;
74945;SDS011;63509;45.250;38.102;2022-12-28T18:25:59;6.05;;;2.15;;
74945;SDS011;63509;45.250;38.102;2022-12-28T18:28:30;7.63;;;2.33;;
74945;SDS011;63509;45.250;38.102;2022-12-28T18:30:58;8.43;;;3.05;;
74945;SDS011;63509;45.250;38.102;2022-12-28T18:33:26;8.23;;;2.55;;
74945;SDS011;63509;45.250;38.102;2022-12-28T18:35:52;14.18;;;3.70;;
74945;SDS011;63509;45.250;38.102;2022-12-28T18:38:37;12.52;;;5.30;;
74945;SDS011;63509;45.250;38.102;2022-12-28T18:41:04;11.93;;;5.50;;
74945;SDS011;63509;45.250;38.102;2022-12-28T18:43:31;11.27;;;6.32;;
74945;SDS011;63509;45.250;38.102;2022-12-28T18:45:58;17.70;;;6.45;;
74945;SDS011;63509;45.250;38.102;2022-12-28T18:48:26;10.82;;;5.55;;
74945;SDS011;63509;45.250;38.102;2022-12-28T18:51:14;7.93;;;3.90;;
74945;SDS011;63509;45.250;38.102;2022-12-28T18:53:43;6.93;;;3.55;;
74945;SDS011;63509;45.250;38.102;2022-12-28T18:56:11;8.23;;;3.08;;
74945;SDS011;63509;45.250;38.102;2022-12-28T18:58:39;11.35;;;3.50;;
74945;SDS011;63509;45.250;38.102;2022-12-28T19:01:07;8.07;;;2.92;;
74945;SDS011;63509;45.250;38.102;2022-12-28T19:03:36;9.45;;;3.17;;
74945;SDS011;63509;45.250;38.102;2022-12-28T19:06:04;6.20;;;2.67;;
74945;SDS011;63509;45.250;38.102;2022-12-28T19:11:00;10.48;;;2.83;;
74945;SDS011;63509;45.250;38.102;2022-12-28T19:16:03;11.05;;;2.88;;
74945;SDS011;63509;45.250;38.102;2022-12-28T19:18:32;6.22;;;2.40;;